Time;durP1;ratioP1;P1;durP2;ratioP2;P2;SDS_P1;SDS_P2;PMS_P1;PMS_P2;Temp;Humidity;BMP_temperature;BMP_pressure;BME280_temperature;BME280_humidity;BME280_pressure;Samples;Min_cycle;Max_cycle;Signal;HPM_P1;HPM_P2
2023/09/04 00:01:12;;;;;;;0.30;0.30;;;;;;;17.62;64.79;102859.94;5060770;28;20532;-78
2023/09/04 00:03:39;;;;;;;0.10;0.10;;;;;;;17.59;64.88;102859.09;5059598;28;20037;-79
2023/09/04 00:06:05;;;;;;;0.10;0.10;;;;;;;17.58;64.82;102851.97;5063722;28;20398;-79
2023/09/04 00:08:31;;;;;;;0.03;0.03;;;;;;;17.56;64.54;102853.81;5064868;28;20025;-79
2023/09/04 00:10:57;;;;;;;0.10;0.10;;;;;;;17.55;64.19;102852.91;5052207;28;20036;-78
2023/09/04 00:13:23;;;;;;;0.10;0.10;;;;;;;17.54;64.82;102850.25;5063174;28;20021;-80
2023/09/04 00:15:53;;;;;;;0.10;0.10;;;;;;;17.51;65.01;102850.28;5063039;28;20027;-79
2023/09/04 00:18:19;;;;;;;0.05;0.05;;;;;;;17.51;64.61;102844.94;5058306;28;20049;-79
2023/09/04 00:20:45;;;;;;;0.10;0.10;;;;;;;17.52;64.25;102852.06;5064200;28;20024;-80
2023/09/04 00:23:11;;;;;;;0.10;0.10;;;;;;;17.51;64.23;102848.53;5049473;28;20588;-80
2023/09/04 00:25:38;;;;;;;0.10;0.10;;;;;;;17.51;64.94;102861.91;5062097;28;20102;-80
2023/09/04 00:28:04;;;;;;;0.00;0.00;;;;;;;17.52;64.40;102857.44;5054190;28;20509;-81
2023/09/04 00:30:31;;;;;;;0.10;0.10;;;;;;;17.50;64.88;102852.09;5066007;28;20029;-79
2023/09/04 00:32:57;;;;;;;0.10;0.10;;;;;;;17.50;64.45;102853.91;5064832;28;20025;-79
2023/09/04 00:35:23;;;;;;;0.00;0.00;;;;;;;17.48;65.00;102853.91;5056988;28;20017;-79
2023/09/04 00:37:49;;;;;;;0.10;0.10;;;;;;;17.46;64.88;102853.94;5057348;28;20555;-79
2023/09/04 00:40:16;;;;;;;0.25;0.25;;;;;;;17.49;64.21;102857.50;5054609;28;20032;-80
2023/09/04 00:42:42;;;;;;;0.30;0.30;;;;;;;17.48;64.17;102853.91;5055118;28;20137;-79
2023/09/04 00:45:11;;;;;;;0.10;0.10;;;;;;;17.48;64.40;102859.28;5058568;28;20028;-80
2023/09/04 00:47:40;;;;;;;0.17;0.17;;;;;;;17.46;64.64;102863.78;5051135;28;20025;-79
2023/09/04 00:50:10;;;;;;;0.10;0.10;;;;;;;17.43;65.07;102864.72;5053010;28;20112;-80
2023/09/04 00:52:36;;;;;;;0.17;0.17;;;;;;;17.41;64.75;102855.81;5059748;28;20059;-78
2023/09/04 00:55:05;;;;;;;0.10;0.10;;;;;;;17.38;65.04;102855.84;5058753;28;20028;-79
2023/09/04 00:57:33;;;;;;;0.10;0.10;;;;;;;17.36;64.72;102857.69;5054086;28;20030;-78
2023/09/04 01:00:05;;;;;;;0.00;0.00;;;;;;;17.36;64.55;102859.47;5056494;28;20021;-77
2023/09/04 01:02:32;;;;;;;;;;;;;;;17.45;64.92;102852.16;5061787;28;20030;-79
2023/09/04 01:04:59;;;;;;;0.10;0.10;;;;;;;17.30;65.17;102847.09;5055088;28;19940;-79
2023/09/04 01:07:25;;;;;;;0.00;0.00;;;;;;;17.30;64.39;102857.78;5056977;28;20057;-78
2023/09/04 01:09:51;;;;;;;0.10;0.10;;;;;;;17.28;64.65;102854.25;5050141;28;20586;-78
2023/09/04 01:12:24;;;;;;;0.10;0.10;;;;;;;17.29;65.38;102850.66;5046736;28;20025;-79
2023/09/04 01:14:54;;;;;;;0.10;0.10;;;;;;;17.28;64.42;102854.25;5052882;28;20028;-80
2023/09/04 01:17:20;;;;;;;0.10;0.10;;;;;;;17.25;64.85;102852.50;5061684;28;20505;-79
2023/09/04 01:19:47;;;;;;;0.22;0.22;;;;;;;17.25;65.21;102862.34;5056404;28;20029;-79
2023/09/04 01:22:13;;;;;;;0.10;0.10;;;;;;;17.24;66.01;102858.75;5045008;28;20025;-79
2023/09/04 01:24:39;;;;;;;0.20;0.20;;;;;;;17.24;65.59;102852.53;5049738;28;20078;-79
2023/09/04 01:27:21;;;;;;;0.10;0.10;;;;;;;17.27;65.38;102855.16;5051608;28;20113;-79
2023/09/04 01:29:58;;;;;;;0.10;0.10;;;;;;;17.25;65.15;102859.66;5052962;28;20588;-78
2023/09/04 01:32:44;;;;;;;0.10;0.10;;;;;;;17.26;65.40;102856.09;5058947;28;20022;-80
2023/09/04 01:35:12;;;;;;;0.10;0.10;;;;;;;17.19;65.06;102859.75;5047409;28;20022;-80
2023/09/04 01:37:40;;;;;;;0.10;0.10;;;;;;;17.17;64.96;102856.22;5053131;28;20029;-78
2023/09/04 01:40:07;;;;;;;0.30;0.15;;;;;;;17.14;64.51;102844.63;5055263;28;20040;-78
2023/09/04 01:42:36;;;;;;;0.10;0.10;;;;;;;17.11;64.71;102847.38;5059539;28;20032;-80
2023/09/04 01:45:02;;;;;;;0.10;0.10;;;;;;;17.11;64.94;102846.50;5059038;28;20025;-79
2023/09/04 01:47:30;;;;;;;0.00;0.00;;;;;;;17.07;65.58;102851.00;5049367;28;20036;-78
2023/09/04 01:49:57;;;;;;;0.10;0.10;;;;;;;17.04;65.44;102848.38;5054014;28;20033;-79
2023/09/04 01:52:23;;;;;;;2.80;2.65;;;;;;;17.04;65.22;102850.19;5057857;28;20487;-79
2023/09/04 01:54:49;;;;;;;0.10;0.10;;;;;;;17.02;64.91;102842.13;5061034;28;20039;-80
2023/09/04 01:57:16;;;;;;;0.00;0.00;;;;;;;17.00;65.68;102845.75;5052703;28;20032;-79
2023/09/04 01:59:42;;;;;;;0.10;0.10;;;;;;;16.97;64.96;102839.56;5058779;28;20025;-79
2023/09/04 02:02:08;;;;;;;0.10;0.10;;;;;;;16.95;65.01;102841.34;5059171;28;20068;-79
2023/09/04 02:04:34;;;;;;;0.63;0.63;;;;;;;16.94;65.44;102844.06;5056492;28;20060;-78
2023/09/04 02:07:01;;;;;;;0.30;0.30;;;;;;;16.93;65.48;102842.28;5064095;28;20056;-80
2023/09/04 02:09:27;;;;;;;0.10;0.10;;;;;;;16.91;65.29;102845.00;5062898;28;20033;-79
2023/09/04 02:11:53;;;;;;;0.00;0.00;;;;;;;16.89;66.09;102843.22;5067269;28;20021;-80
2023/09/04 02:14:19;;;;;;;0.20;0.20;;;;;;;16.87;65.84;102842.34;5062777;28;20036;-79
2023/09/04 02:16:45;;;;;;;0.30;0.30;;;;;;;16.85;65.34;102839.69;5067517;28;20020;-79
2023/09/04 02:19:12;;;;;;;0.10;0.10;;;;;;;16.84;65.78;102837.06;5060306;28;20392;-80
2023/09/04 02:21:38;;;;;;;0.10;0.10;;;;;;;16.81;65.85;102836.19;5059502;28;20067;-78
2023/09/04 02:24:04;;;;;;;0.10;0.10;;;;;;;16.81;65.91;102828.16;5067898;28;20060;-77
2023/09/04 02:26:31;;;;;;;0.15;0.15;;;;;;;16.81;65.76;102825.47;5065868;28;20037;-79
2023/09/04 02:28:57;;;;;;;0.05;0.05;;;;;;;16.82;65.37;102826.34;5061897;28;20118;-79
2023/09/04 02:31:23;;;;;;;0.03;0.03;;;;;;;16.80;66.02;102826.38;5061770;28;20025;-78
2023/09/04 02:33:50;;;;;;;0.15;0.15;;;;;;;16.79;65.78;102824.59;5060680;28;20036;-79
2023/09/04 02:36:16;;;;;;;0.05;0.05;;;;;;;16.80;65.39;102830.84;5055826;28;20433;-79
2023/09/04 02:38:42;;;;;;;0.63;0.63;;;;;;;16.79;65.64;102823.72;5066596;28;20032;-79
2023/09/04 02:41:08;;;;;;;0.10;0.10;;;;;;;16.79;65.66;102819.25;5065624;28;21717;-80
2023/09/04 02:43:35;;;;;;;0.00;0.00;;;;;;;16.80;65.49;102815.66;5060707;28;20025;-79
2023/09/04 02:46:01;;;;;;;0.10;0.10;;;;;;;16.78;65.82;102814.78;5061089;28;20152;-79
2023/09/04 02:48:27;;;;;;;0.10;0.10;;;;;;;16.78;65.93;102805.88;5064868;28;20073;-79
2023/09/04 02:51:00;;;;;;;0.08;0.08;;;;;;;16.80;65.63;102799.59;5063160;28;20032;-79
2023/09/04 02:53:27;;;;;;;0.00;0.00;;;;;;;16.75;65.88;102800.59;5055639;28;20660;-79
2023/09/04 02:55:54;;;;;;;0.30;0.30;;;;;;;16.73;65.79;102791.69;5059950;28;20053;-78
2023/09/04 02:58:21;;;;;;;0.40;0.40;;;;;;;16.72;65.52;102796.13;5063048;28;20083;-79
2023/09/04 03:00:49;;;;;;;0.10;0.10;;;;;;;16.67;65.50;102784.63;5066158;28;20423;-79
2023/09/04 03:03:19;;;;;;;0.40;0.40;;;;;;;16.63;65.87;102783.78;5062148;28;20414;-79
2023/09/04 03:05:46;;;;;;;0.28;0.28;;;;;;;16.61;65.98;102782.03;5062960;28;20486;-77
2023/09/04 03:08:12;;;;;;;0.10;0.10;;;;;;;16.58;66.08;102780.28;5063695;28;20025;-80
2023/09/04 03:10:38;;;;;;;0.10;0.10;;;;;;;16.59;65.83;102782.06;5057691;28;20497;-80
2023/09/04 03:13:04;;;;;;;0.00;0.00;;;;;;;16.57;66.19;102783.88;5057588;28;20082;-79
2023/09/04 03:15:30;;;;;;;0.10;0.10;;;;;;;16.55;66.29;102782.13;5056901;28;20037;-79
2023/09/04 03:17:56;;;;;;;0.10;0.10;;;;;;;16.53;65.93;102783.94;5050592;28;20061;-79
2023/09/04 03:20:22;;;;;;;0.10;0.10;;;;;;;16.50;66.34;102777.72;5060211;28;20017;-78
2023/09/04 03:22:48;;;;;;;0.47;0.47;;;;;;;16.50;65.82;102780.41;5059876;28;20030;-79
2023/09/04 03:25:15;;;;;;;0.40;0.40;;;;;;;16.48;66.42;102784.88;5062044;28;20025;-80
2023/09/04 03:27:41;;;;;;;0.10;0.10;;;;;;;16.47;65.80;102777.78;5055711;28;20040;-79
2023/09/04 03:30:07;;;;;;;0.43;0.43;;;;;;;16.44;66.20;102782.28;5056236;28;20112;-79
2023/09/04 03:32:33;;;;;;;0.10;0.10;;;;;;;16.42;65.58;102784.97;5050529;28;20063;-78
2023/09/04 03:34:59;;;;;;;0.17;0.17;;;;;;;16.41;65.76;102796.59;5053953;28;20016;-78
2023/09/04 03:37:25;;;;;;;0.10;0.10;;;;;;;16.39;65.48;102790.38;5056783;28;20025;-78
2023/09/04 03:39:52;;;;;;;0.03;0.03;;;;;;;16.35;65.79;102785.97;5065090;28;20037;-79
2023/09/04 03:42:18;;;;;;;0.10;0.10;;;;;;;16.33;66.02;102787.78;5048914;28;20049;-79
2023/09/04 03:44:44;;;;;;;0.03;0.03;;;;;;;16.32;65.82;102786.00;5053545;28;20094;-78
2023/09/04 03:47:10;;;;;;;0.03;0.03;;;;;;;16.30;66.24;102782.47;5058551;28;20032;-78
2023/09/04 03:49:36;;;;;;;0.17;0.17;;;;;;;16.27;66.10;102778.03;5056714;28;20057;-79
2023/09/04 03:52:03;;;;;;;0.00;0.00;;;;;;;16.28;66.06;102776.25;5057530;28;20484;-79
2023/09/04 03:54:29;;;;;;;0.10;0.10;;;;;;;16.27;66.37;102771.81;5053513;28;20025;-79
2023/09/04 03:56:56;;;;;;;0.00;0.00;;;;;;;16.24;65.91;102764.72;5058423;28;20029;-79
2023/09/04 03:59:22;;;;;;;0.20;0.20;;;;;;;16.24;66.17;102766.50;5056383;28;20035;-77
2023/09/04 04:01:48;;;;;;;0.00;0.00;;;;;;;16.22;66.03;102757.63;5056636;28;20051;-78
2023/09/04 04:04:14;;;;;;;0.10;0.10;;;;;;;16.20;65.88;102751.38;5056445;28;20039;-76
2023/09/04 04:06:40;;;;;;;0.40;0.40;;;;;;;16.18;66.04;102757.63;5054986;28;20029;-79
2023/09/04 04:09:07;;;;;;;0.10;0.10;;;;;;;16.17;65.88;102755.88;5062204;28;20045;-80
2023/09/04 04:11:35;;;;;;;0.10;0.10;;;;;;;16.16;66.25;102754.13;5062103;28;20021;-78
2023/09/04 04:14:02;;;;;;;0.10;0.10;;;;;;;16.13;66.42;102756.81;5059162;28;20029;-80
2023/09/04 04:16:30;;;;;;;0.10;0.10;;;;;;;16.11;66.48;102763.09;5055156;28;20056;-79
2023/09/04 04:18:56;;;;;;;0.10;0.10;;;;;;;16.10;66.50;102767.56;5055932;28;20536;-77
2023/09/04 04:21:22;;;;;;;0.10;0.10;;;;;;;16.09;66.32;102764.91;5063466;28;20033;-79
2023/09/04 04:23:48;;;;;;;0.10;0.10;;;;;;;16.08;66.39;102765.81;5057584;28;20088;-79
2023/09/04 04:26:15;;;;;;;0.00;0.00;;;;;;;16.07;66.35;102770.25;5055585;28;20024;-80
2023/09/04 04:28:41;;;;;;;0.52;0.52;;;;;;;16.07;66.60;102767.59;5059890;28;20033;-79
2023/09/04 04:31:07;;;;;;;0.15;0.15;;;;;;;16.07;66.07;102769.38;5058848;28;20033;-78
2023/09/04 04:33:33;;;;;;;0.10;0.10;;;;;;;16.05;66.31;102768.50;5058484;28;20494;-79
2023/09/04 04:36:00;;;;;;;0.10;0.10;;;;;;;16.04;66.06;102764.97;5057127;28;20039;-78
2023/09/04 04:38:26;;;;;;;0.10;0.10;;;;;;;16.02;66.36;102764.09;5055131;28;20275;-79
2023/09/04 04:40:52;;;;;;;0.10;0.10;;;;;;;16.00;66.37;102768.59;5058793;28;20033;-79
2023/09/04 04:43:18;;;;;;;0.10;0.10;;;;;;;15.99;66.33;102764.13;5057423;28;20048;-79
2023/09/04 04:45:44;;;;;;;0.10;0.10;;;;;;;15.96;66.95;102761.50;5055702;28;20078;-77
2023/09/04 04:48:10;;;;;;;0.65;0.50;;;;;;;15.94;67.06;102755.28;5059976;28;20033;-78
2023/09/04 04:50:36;;;;;;;0.43;0.40;;;;;;;15.95;66.38;102759.72;5057707;28;20086;-78
2023/09/04 04:53:03;;;;;;;0.10;0.10;;;;;;;15.94;66.83;102760.63;5053736;28;20036;-78
2023/09/04 04:55:29;;;;;;;0.10;0.10;;;;;;;15.93;66.45;102751.72;5054692;28;20545;-78
2023/09/04 04:57:55;;;;;;;0.10;0.10;;;;;;;15.94;66.95;102758.84;5054957;28;20048;-77
2023/09/04 05:00:21;;;;;;;0.10;0.10;;;;;;;15.93;66.67;102767.75;5057882;28;20037;-79
2023/09/04 05:02:47;;;;;;;0.10;0.10;;;;;;;15.94;66.86;102752.63;5062922;28;20567;-79
2023/09/04 05:05:13;;;;;;;0.10;0.10;;;;;;;15.95;66.36;102762.38;5071539;28;20033;-78
2023/09/04 05:07:41;;;;;;;2.35;0.52;;;;;;;15.94;66.58;102757.97;5066286;28;20109;-79
2023/09/04 05:10:08;;;;;;;0.30;0.30;;;;;;;15.95;66.60;102765.06;5063098;28;20033;-77
2023/09/04 05:12:34;;;;;;;0.10;0.10;;;;;;;15.93;67.41;102766.88;5064834;28;20174;-79
2023/09/04 05:15:00;;;;;;;0.10;0.10;;;;;;;15.95;66.83;102763.28;5061944;28;20025;-79
2023/09/04 05:17:26;;;;;;;0.20;0.20;;;;;;;15.94;66.86;102766.84;5066228;28;20370;-79
2023/09/04 05:19:52;;;;;;;0.10;0.10;;;;;;;15.96;66.69;102764.16;5062458;28;20455;-79
2023/09/04 05:22:18;;;;;;;0.10;0.10;;;;;;;15.97;66.26;102773.97;5058269;28;20052;-79
2023/09/04 05:24:44;;;;;;;0.10;0.10;;;;;;;15.99;66.63;102772.16;5061481;28;20037;-80
2023/09/04 05:27:10;;;;;;;0.10;0.10;;;;;;;15.99;67.00;102773.03;5058227;28;20116;-79
2023/09/04 05:29:36;;;;;;;0.10;0.10;;;;;;;15.99;67.07;102781.06;5062033;28;20514;-79
2023/09/04 05:32:02;;;;;;;0.15;0.15;;;;;;;16.02;66.33;102769.44;5064716;28;20081;-79
2023/09/04 05:34:28;;;;;;;0.10;0.10;;;;;;;16.04;66.99;102781.00;5069022;28;20036;-79
2023/09/04 05:36:55;;;;;;;0.43;0.43;;;;;;;16.06;66.84;102779.19;5062630;28;20056;-80
2023/09/04 05:39:21;;;;;;;0.20;0.20;;;;;;;16.09;66.39;102775.63;5067396;28;20514;-79
2023/09/04 05:41:48;;;;;;;0.10;0.10;;;;;;;16.11;66.23;102777.38;5054136;28;20091;-78
2023/09/04 05:44:14;;;;;;;0.10;0.10;;;;;;;16.14;66.82;102774.63;5047525;28;20033;-78
2023/09/04 05:46:40;;;;;;;0.10;0.10;;;;;;;16.16;66.73;102775.50;5053792;28;20044;-79
2023/09/04 05:49:06;;;;;;;0.03;0.03;;;;;;;16.18;66.65;102771.00;5057142;28;20040;-78
2023/09/04 05:51:32;;;;;;;0.20;0.20;;;;;;;16.23;66.98;102770.97;5056088;28;20502;-80
2023/09/04 05:53:58;;;;;;;0.10;0.10;;;;;;;16.24;67.40;102770.06;5047853;28;20044;-76
2023/09/04 05:56:24;;;;;;;0.20;0.20;;;;;;;16.28;67.01;102763.75;5043303;28;20494;-78
2023/09/04 05:58:51;;;;;;;0.10;0.10;;;;;;;16.31;67.02;102762.81;5044734;28;20494;-77
2023/09/04 06:01:19;;;;;;;0.10;0.10;;;;;;;16.33;67.22;102767.25;5043362;28;20032;-78
2023/09/04 06:03:46;;;;;;;0.10;0.10;;;;;;;16.37;67.02;102768.09;5048178;28;20021;-78
2023/09/04 06:06:13;;;;;;;0.20;0.20;;;;;;;16.40;66.55;102765.41;5053527;28;20039;-78
2023/09/04 06:08:39;;;;;;;0.10;0.10;;;;;;;16.42;66.78;102768.91;5057483;28;20025;-78
2023/09/04 06:11:06;;;;;;;0.43;0.43;;;;;;;16.46;66.84;102761.72;5060468;28;20032;-78
2023/09/04 06:13:32;;;;;;;0.20;0.20;;;;;;;16.49;66.94;102757.22;5052559;28;20021;-78
2023/09/04 06:15:59;;;;;;;0.10;0.10;;;;;;;16.55;66.74;102760.72;5060434;28;20021;-78
2023/09/04 06:18:28;;;;;;;0.10;0.10;;;;;;;16.57;66.97;102751.75;5060675;28;20043;-78
2023/09/04 06:20:54;;;;;;;0.20;0.20;;;;;;;16.62;67.42;102751.69;5060314;28;20033;-79
2023/09/04 06:23:20;;;;;;;0.10;0.10;;;;;;;16.67;66.61;102752.50;5061876;28;20036;-79
2023/09/04 06:25:46;;;;;;;0.10;0.10;;;;;;;16.72;66.78;102756.00;5062979;28;20100;-78
2023/09/04 06:28:13;;;;;;;0.52;0.52;;;;;;;16.77;67.39;102756.84;5062611;28;20107;-76
2023/09/04 06:30:39;;;;;;;0.15;0.15;;;;;;;16.82;67.04;102756.75;5060582;28;20033;-77
2023/09/04 06:33:05;;;;;;;0.17;0.17;;;;;;;16.88;67.09;102755.78;5059763;28;20494;-78
2023/09/04 06:35:32;;;;;;;0.10;0.10;;;;;;;16.92;67.12;102752.16;5060829;28;20071;-79
2023/09/04 06:37:58;;;;;;;0.10;0.10;;;;;;;16.97;67.15;102747.59;5064663;28;20044;-78
2023/09/04 06:40:25;;;;;;;0.10;0.10;;;;;;;17.02;67.24;102751.09;5061517;28;20041;-77
2023/09/04 06:42:53;;;;;;;0.10;0.10;;;;;;;17.10;66.96;102753.66;5061170;28;20032;-79
2023/09/04 06:45:20;;;;;;;0.10;0.10;;;;;;;17.19;67.00;102755.28;5061432;28;20024;-78
2023/09/04 06:47:46;;;;;;;0.10;0.10;;;;;;;17.25;67.19;102755.19;5060659;28;20096;-79
2023/09/04 06:50:12;;;;;;;0.10;0.10;;;;;;;17.31;67.19;102752.41;5060643;28;20111;-78
2023/09/04 06:52:38;;;;;;;0.10;0.10;;;;;;;17.39;66.94;102755.81;5063071;28;20028;-76
2023/09/04 06:55:05;;;;;;;0.93;0.93;;;;;;;17.46;67.49;102752.13;5059909;28;20037;-77
2023/09/04 06:57:31;;;;;;;0.17;0.17;;;;;;;17.53;67.10;102752.00;5052990;28;20053;-79
2023/09/04 06:59:58;;;;;;;0.10;0.10;;;;;;;17.60;67.57;102759.03;5063055;28;20044;-78
2023/09/04 07:02:24;;;;;;;0.32;0.32;;;;;;;17.66;67.31;102753.53;5058134;28;20022;-79
2023/09/04 07:04:51;;;;;;;0.10;0.10;;;;;;;17.76;67.18;102748.88;5062751;28;20065;-79
2023/09/04 07:07:17;;;;;;;0.10;0.10;;;;;;;17.81;67.84;102746.09;5056194;28;20041;-79
2023/09/04 07:09:43;;;;;;;0.10;0.10;;;;;;;17.86;67.47;102744.22;5059570;28;20029;-77
2023/09/04 07:12:11;;;;;;;9.30;0.82;;;;;;;17.94;67.30;102742.28;5059858;28;20387;-79
2023/09/04 07:14:38;;;;;;;0.77;0.77;;;;;;;18.01;66.69;102743.94;5067740;28;20025;-78
2023/09/04 07:17:04;;;;;;;0.20;0.20;;;;;;;18.07;66.72;102746.47;5057195;28;20044;-78
2023/09/04 07:19:30;;;;;;;0.55;0.55;;;;;;;18.08;67.93;102740.22;5061871;28;20032;-78
2023/09/04 07:21:56;;;;;;;0.10;0.10;;;;;;;18.20;67.10;102738.19;5063303;28;20092;-78
2023/09/04 07:24:22;;;;;;;0.17;0.17;;;;;;;18.27;66.65;102740.69;5061263;28;20177;-79
2023/09/04 07:26:49;;;;;;;0.20;0.20;;;;;;;18.32;67.13;102737.91;5060023;28;20033;-79
2023/09/04 07:29:17;;;;;;;0.65;0.65;;;;;;;18.38;67.21;102742.22;5056007;28;20132;-80
2023/09/04 07:31:43;;;;;;;0.10;0.10;;;;;;;18.46;67.18;102742.09;5055840;28;20028;-79
2023/09/04 07:34:09;;;;;;;0.10;0.10;;;;;;;18.54;66.85;102742.78;5059585;28;20084;-78
2023/09/04 07:36:35;;;;;;;0.20;0.20;;;;;;;18.57;67.16;102734.66;5058261;28;20025;-79
2023/09/04 07:39:01;;;;;;;0.20;0.20;;;;;;;18.67;66.60;102733.50;5059575;28;20036;-79
2023/09/04 07:41:27;;;;;;;12.95;0.95;;;;;;;18.73;66.74;102738.75;5056360;28;20039;-79
2023/09/04 07:43:53;;;;;;;1.48;1.42;;;;;;;18.76;67.10;102746.69;5058937;28;20029;-78
2023/09/04 07:46:19;;;;;;;0.10;0.10;;;;;;;18.86;66.72;102749.19;5056713;28;20017;-79
2023/09/04 07:48:46;;;;;;;1.38;1.17;;;;;;;18.95;66.50;102751.66;5060115;28;20486;-78
2023/09/04 07:51:12;;;;;;;0.55;0.55;;;;;;;19.03;66.28;102756.88;5058549;28;20043;-79
2023/09/04 07:53:38;;;;;;;0.20;0.20;;;;;;;19.08;66.64;102761.19;5059295;28;20033;-78
2023/09/04 07:56:04;;;;;;;0.20;0.20;;;;;;;19.13;66.87;102750.34;5058752;28;20060;-79
2023/09/04 07:58:30;;;;;;;0.90;0.90;;;;;;;19.25;66.23;102751.78;5058555;28;20032;-78
2023/09/04 08:00:56;;;;;;;0.65;0.65;;;;;;;19.25;66.88;102741.06;5057262;28;20375;-78
2023/09/04 08:03:22;;;;;;;0.73;0.73;;;;;;;19.39;65.84;102740.72;5059629;28;20049;-79
2023/09/04 08:05:48;;;;;;;0.10;0.10;;;;;;;19.45;65.80;102743.22;5055619;28;20047;-79
2023/09/04 08:08:14;;;;;;;0.57;0.57;;;;;;;19.53;66.09;102734.94;5058055;28;20039;-78
2023/09/04 08:10:43;;;;;;;0.10;0.10;;;;;;;19.64;65.88;102738.22;5060152;28;20083;-79
2023/09/04 08:13:13;;;;;;;0.10;0.10;;;;;;;19.73;65.80;102743.31;5058795;28;20025;-80
2023/09/04 08:15:40;;;;;;;0.10;0.10;;;;;;;19.82;65.71;102742.19;5057796;28;20033;-80
2023/09/04 08:18:07;;;;;;;0.20;0.20;;;;;;;19.92;65.61;102753.59;5060129;28;20036;-79
2023/09/04 08:20:34;;;;;;;0.10;0.10;;;;;;;20.04;65.48;102747.84;5057372;28;20090;-79
2023/09/04 08:23:00;;;;;;;0.22;0.22;;;;;;;20.12;65.47;102749.44;5058602;28;20029;-80
2023/09/04 08:25:26;;;;;;;0.73;0.73;;;;;;;20.20;65.21;102737.50;5056815;28;20036;-80
2023/09/04 08:27:53;;;;;;;3.03;1.90;;;;;;;20.30;65.15;102743.50;5058954;28;20375;-80
2023/09/04 08:30:19;;;;;;;0.10;0.10;;;;;;;20.43;64.94;102745.81;5055339;28;20029;-81
2023/09/04 08:32:45;;;;;;;0.00;0.00;;;;;;;20.55;64.74;102745.44;5057594;28;20363;-77
2023/09/04 08:35:12;;;;;;;0.85;0.85;;;;;;;20.67;64.98;102741.44;5063274;28;20060;-80
2023/09/04 08:37:38;;;;;;;0.15;0.15;;;;;;;20.73;65.04;102738.56;5058155;28;20024;-80
2023/09/04 08:40:05;;;;;;;0.32;0.32;;;;;;;20.90;64.55;102735.34;5059177;28;20067;-83
2023/09/04 08:42:32;;;;;;;0.32;0.32;;;;;;;21.01;63.91;102734.97;5051389;28;20025;-79
2023/09/04 08:44:59;;;;;;;0.73;0.73;;;;;;;21.07;63.83;102734.78;5052338;28;20052;-79
2023/09/04 08:47:25;;;;;;;0.17;0.17;;;;;;;21.20;63.72;102728.94;5051918;28;20103;-82
2023/09/04 08:49:53;;;;;;;0.60;0.60;;;;;;;21.29;63.74;102724.09;5052859;28;20033;-82
2023/09/04 08:52:19;;;;;;;1.08;0.93;;;;;;;21.47;63.49;102732.47;5049760;28;20522;-82
2023/09/04 08:54:47;;;;;;;0.10;0.10;;;;;;;21.61;63.12;102724.78;5053184;28;20028;-83
2023/09/04 08:57:14;;;;;;;0.00;0.00;;;;;;;21.76;63.13;102730.56;5052645;28;20068;-79
2023/09/04 08:59:40;;;;;;;0.30;0.30;;;;;;;21.87;62.59;102720.25;5049134;28;20107;-83
2023/09/04 09:02:13;;;;;;;0.25;0.25;;;;;;;22.05;62.62;102729.44;5051009;28;20729;-84
2023/09/04 09:04:40;;;;;;;2.92;0.73;;;;;;;22.19;62.46;102728.91;5052592;28;20056;-84
2023/09/04 09:07:06;;;;;;;0.10;0.10;;;;;;;22.31;62.27;102730.25;5052465;28;20098;-84
2023/09/04 09:09:37;;;;;;;0.10;0.10;;;;;;;22.42;61.87;102725.34;5052207;28;20025;-84
2023/09/04 09:12:04;;;;;;;0.10;0.10;;;;;;;22.52;61.08;102716.84;5054049;28;20032;-80
2023/09/04 09:14:31;;;;;;;0.32;0.32;;;;;;;22.64;61.07;102720.88;5055404;28;20036;-80
2023/09/04 09:17:05;;;;;;;0.30;0.30;;;;;;;22.81;61.03;102725.59;5054292;28;20120;-80
2023/09/04 09:19:35;;;;;;;1.02;0.55;;;;;;;22.90;60.78;102722.47;5053781;28;20513;-81
2023/09/04 09:22:21;;;;;;;0.10;0.10;;;;;;;23.10;60.93;102718.91;5055357;28;20060;-80
2023/09/04 09:27:27;;;;;;;0.20;0.20;;;;;;;23.24;59.38;102719.25;5106874;27;20143;-81
2023/09/04 09:29:58;;;;;;;0.10;0.10;;;;;;;23.35;58.24;102718.78;5103831;28;20032;-81
2023/09/04 09:32:29;;;;;;;0.32;0.32;;;;;;;23.48;58.66;102710.97;5093714;28;20466;-82
2023/09/04 09:34:58;;;;;;;0.15;0.15;;;;;;;23.61;58.54;102707.72;5085665;28;20028;-81
2023/09/04 09:37:30;;;;;;;0.32;0.32;;;;;;;23.75;59.10;102705.22;5079056;28;20032;-81
2023/09/04 09:39:56;;;;;;;0.20;0.20;;;;;;;23.89;59.07;102705.47;5083038;28;20035;-81
2023/09/04 09:42:24;;;;;;;0.10;0.10;;;;;;;24.02;58.84;102713.06;5089297;28;20024;-81
2023/09/04 09:44:53;;;;;;;0.17;0.17;;;;;;;24.05;57.55;102700.25;5089509;28;20028;-81
2023/09/04 09:47:20;;;;;;;0.47;0.47;;;;;;;24.16;57.81;102693.44;5086698;28;20032;-82
2023/09/04 09:49:46;;;;;;;0.35;0.35;;;;;;;24.25;58.11;102694.81;5085058;28;20035;-81
2023/09/04 09:52:13;;;;;;;0.10;0.10;;;;;;;24.37;58.00;102681.56;5086571;28;20524;-80
2023/09/04 09:54:41;;;;;;;0.10;0.10;;;;;;;24.49;56.99;102682.78;5084958;28;20051;-81
2023/09/04 09:59:49;;;;;;;0.13;0.13;;;;;;;24.73;56.33;102678.94;5112201;27;20892;-81
2023/09/04 10:02:20;;;;;;;0.10;0.10;;;;;;;24.83;56.70;102670.25;5097926;28;20036;-83
2023/09/04 10:04:46;;;;;;;0.20;0.20;;;;;;;24.88;56.14;102656.44;5104888;28;20034;-82
2023/09/04 10:07:17;;;;;;;0.20;0.20;;;;;;;24.95;53.89;102666.03;5086447;28;20263;-83
2023/09/04 10:09:46;;;;;;;0.20;0.20;;;;;;;25.06;55.40;102662.75;5098772;28;20024;-83
2023/09/04 10:12:22;;;;;;;1.95;0.63;;;;;;;25.16;54.49;102658.59;5099734;28;20033;-80
2023/09/04 10:14:54;;;;;;;0.10;0.10;;;;;;;25.31;55.15;102661.44;5098324;28;20032;-81
2023/09/04 10:17:35;;;;;;;0.20;0.20;;;;;;;25.39;54.92;102653.78;5097865;28;20059;-82
2023/09/04 10:20:04;;;;;;;0.10;0.10;;;;;;;25.47;53.85;102654.25;5097752;28;20033;-82
2023/09/04 10:22:45;;;;;;;0.20;0.20;;;;;;;25.57;53.22;102651.03;5098146;28;20568;-83
2023/09/04 10:25:38;;;;;;;0.08;0.08;;;;;;;25.72;54.07;102650.19;5099933;28;20028;-82
2023/09/04 10:28:09;;;;;;;0.10;0.10;;;;;;;25.71;53.33;102656.59;5100054;28;20052;-81
2023/09/04 10:30:40;;;;;;;0.20;0.20;;;;;;;25.78;53.53;102651.66;5098713;28;20024;-82
2023/09/04 10:33:06;;;;;;;0.00;0.00;;;;;;;25.80;53.23;102647.91;5105635;28;20673;-83
2023/09/04 10:35:33;;;;;;;1.65;0.75;;;;;;;25.75;50.17;102655.44;5106895;28;20036;-82
2023/09/04 10:37:59;;;;;;;0.00;0.00;;;;;;;25.89;52.22;102651.06;5110580;28;20020;-83
2023/09/04 10:40:28;;;;;;;0.38;0.38;;;;;;;25.96;52.67;102655.19;5106675;28;20038;-83
2023/09/04 10:42:56;;;;;;;1.17;0.82;;;;;;;26.05;50.73;102651.94;5104496;28;20024;-81
2023/09/04 10:45:23;;;;;;;0.10;0.10;;;;;;;26.16;51.84;102648.66;5105086;28;20028;-81
2023/09/04 10:47:51;;;;;;;0.05;0.05;;;;;;;26.25;50.46;102633.66;5097628;28;20021;-84
2023/09/04 10:50:38;;;;;;;0.17;0.17;;;;;;;26.44;51.18;102626.19;5098858;28;20027;-83
2023/09/04 10:53:07;;;;;;;0.30;0.30;;;;;;;26.45;50.96;102627.91;5103339;28;20055;-82
2023/09/04 10:55:36;;;;;;;0.00;0.00;;;;;;;26.51;50.38;102621.25;5084178;28;20036;-82
2023/09/04 10:58:04;;;;;;;0.03;0.03;;;;;;;26.58;50.96;102627.19;5086486;28;20036;-83
2023/09/04 11:00:39;;;;;;;0.20;0.20;;;;;;;26.63;51.49;102614.19;5078630;28;20035;-82
2023/09/04 11:03:17;;;;;;;0.28;0.28;;;;;;;26.55;50.29;102619.22;5093086;28;20106;-81
2023/09/04 11:08:50;;;;;;;0.30;0.30;;;;;;;26.66;50.15;102608.56;5076341;27;1910040;-81
2023/09/04 11:11:23;;;;;;;0.10;0.10;;;;;;;26.72;49.68;102607.34;5121605;28;20028;-84
2023/09/04 11:13:59;;;;;;;0.05;0.05;;;;;;;26.86;49.39;102606.50;5126255;28;20056;-84
2023/09/04 11:16:26;;;;;;;0.35;0.35;;;;;;;26.94;50.71;102609.63;5128884;28;20026;-83
2023/09/04 11:21:46;;;;;;;0.70;0.70;;;;;;;27.01;49.63;102605.56;5079981;28;20398;-83
2023/09/04 11:24:12;;;;;;;0.10;0.10;;;;;;;27.06;50.01;102595.25;5066860;28;20025;-83
2023/09/04 11:26:38;;;;;;;0.10;0.10;;;;;;;27.07;49.34;102591.56;5058142;28;20026;-85
2023/09/04 11:29:05;;;;;;;1.08;0.60;;;;;;;27.21;49.05;102592.56;5043124;28;20049;-85
2023/09/04 11:31:38;;;;;;;0.10;0.10;;;;;;;27.21;48.92;102592.56;5057037;28;20098;-85
2023/09/04 11:34:04;;;;;;;0.20;0.20;;;;;;;27.27;46.98;102589.44;5059862;28;20116;-84
2023/09/04 11:36:31;;;;;;;0.38;0.38;;;;;;;27.31;47.49;102588.25;5057875;28;20025;-85